sensor_id;sensor_type;location;lat;lon;timestamp;temperature;humidity
51559;DHT22;61650;48.882;2.092;2023-04-16T00:01:27;4.20;99.90
51559;DHT22;61650;48.882;2.092;2023-04-16T00:03:53;4.20;99.90
51559;DHT22;61650;48.882;2.092;2023-04-16T00:06:18;4.10;99.90
51559;DHT22;61650;48.882;2.092;2023-04-16T00:08:44;4.00;99.90
51559;DHT22;61650;48.882;2.092;2023-04-16T00:11:10;4.00;99.90
51559;DHT22;61650;48.882;2.092;2023-04-16T00:13:36;4.10;99.90
51559;DHT22;61650;48.882;2.092;2023-04-16T00:16:01;4.00;99.90
51559;DHT22;61650;48.882;2.092;2023-04-16T00:18:27;4.00;99.90
51559;DHT22;61650;48.882;2.092;2023-04-16T00:20:52;3.80;99.90
51559;DHT22;61650;48.882;2.092;2023-04-16T00:23:19;3.80;99.90
51559;DHT22;61650;48.882;2.092;2023-04-16T00:25:44;3.80;99.90
51559;DHT22;61650;48.882;2.092;2023-04-16T00:28:10;3.70;99.90
51559;DHT22;61650;48.882;2.092;2023-04-16T00:30:35;3.60;99.90
51559;DHT22;61650;48.882;2.092;2023-04-16T00:33:01;3.50;99.90
51559;DHT22;61650;48.882;2.092;2023-04-16T00:35:29;3.50;99.90
51559;DHT22;61650;48.882;2.092;2023-04-16T00:37:54;3.50;99.90
51559;DHT22;61650;48.882;2.092;2023-04-16T00:40:20;3.40;99.90
51559;DHT22;61650;48.882;2.092;2023-04-16T00:42:46;3.40;99.90
51559;DHT22;61650;48.882;2.092;2023-04-16T00:45:11;3.40;99.90
51559;DHT22;61650;48.882;2.092;2023-04-16T00:47:37;3.40;99.90
51559;DHT22;61650;48.882;2.092;2023-04-16T00:50:03;3.30;99.90
51559;DHT22;61650;48.882;2.092;2023-04-16T00:52:31;3.30;99.90
51559;DHT22;61650;48.882;2.092;2023-04-16T00:54:57;3.30;99.90
51559;DHT22;61650;48.882;2.092;2023-04-16T00:57:23;3.30;99.90
51559;DHT22;61650;48.882;2.092;2023-04-16T00:59:49;3.30;99.90
51559;DHT22;61650;48.882;2.092;2023-04-16T01:02:15;3.20;99.90
51559;DHT22;61650;48.882;2.092;2023-04-16T01:04:41;3.20;99.90
51559;DHT22;61650;48.882;2.092;2023-04-16T01:07:07;3.10;99.90
51559;DHT22;61650;48.882;2.092;2023-04-16T01:09:32;3.20;99.90
51559;DHT22;61650;48.882;2.092;2023-04-16T01:11:58;3.10;99.90
51559;DHT22;61650;48.882;2.092;2023-04-16T01:14:23;3.10;99.90
51559;DHT22;61650;48.882;2.092;2023-04-16T01:16:49;3.00;99.90
51559;DHT22;61650;48.882;2.092;2023-04-16T01:19:15;2.90;99.90
51559;DHT22;61650;48.882;2.092;2023-04-16T01:21:40;2.90;99.90
51559;DHT22;61650;48.882;2.092;2023-04-16T01:24:06;2.90;99.90
51559;DHT22;61650;48.882;2.092;2023-04-16T01:26:32;2.80;99.90
51559;DHT22;61650;48.882;2.092;2023-04-16T01:28:58;2.70;99.90
51559;DHT22;61650;48.882;2.092;2023-04-16T01:31:24;2.70;99.90
51559;DHT22;61650;48.882;2.092;2023-04-16T01:33:49;2.60;99.90
51559;DHT22;61650;48.882;2.092;2023-04-16T01:36:15;2.70;99.90
51559;DHT22;61650;48.882;2.092;2023-04-16T01:38:41;2.70;99.90
51559;DHT22;61650;48.882;2.092;2023-04-16T01:41:06;2.70;99.90
51559;DHT22;61650;48.882;2.092;2023-04-16T01:43:32;2.70;99.90
51559;DHT22;61650;48.882;2.092;2023-04-16T01:48:35;2.60;99.90
51559;DHT22;61650;48.882;2.092;2023-04-16T01:51:01;2.60;99.90
51559;DHT22;61650;48.882;2.092;2023-04-16T01:53:26;2.50;99.90
51559;DHT22;61650;48.882;2.092;2023-04-16T01:55:52;2.40;99.90
51559;DHT22;61650;48.882;2.092;2023-04-16T01:58:18;2.40;99.90
51559;DHT22;61650;48.882;2.092;2023-04-16T02:00:43;2.30;99.90
51559;DHT22;61650;48.882;2.092;2023-04-16T02:03:09;2.30;99.90
51559;DHT22;61650;48.882;2.092;2023-04-16T02:05:34;2.30;99.90
51559;DHT22;61650;48.882;2.092;2023-04-16T02:08:00;2.30;99.90
51559;DHT22;61650;48.882;2.092;2023-04-16T02:10:26;2.20;99.90
51559;DHT22;61650;48.882;2.092;2023-04-16T02:12:51;2.20;99.90
51559;DHT22;61650;48.882;2.092;2023-04-16T02:15:17;2.20;99.90
51559;DHT22;61650;48.882;2.092;2023-04-16T02:17:42;2.20;99.90
51559;DHT22;61650;48.882;2.092;2023-04-16T02:20:08;2.10;99.90
51559;DHT22;61650;48.882;2.092;2023-04-16T02:22:35;2.10;99.90
51559;DHT22;61650;48.882;2.092;2023-04-16T02:25:00;2.00;99.90
51559;DHT22;61650;48.882;2.092;2023-04-16T02:27:26;2.00;99.90
51559;DHT22;61650;48.882;2.092;2023-04-16T02:29:51;2.00;99.90
51559;DHT22;61650;48.882;2.092;2023-04-16T02:32:17;2.00;99.90
51559;DHT22;61650;48.882;2.092;2023-04-16T02:34:43;2.00;99.90
51559;DHT22;61650;48.882;2.092;2023-04-16T02:37:08;1.80;99.90
51559;DHT22;61650;48.882;2.092;2023-04-16T02:39:34;1.80;99.90
51559;DHT22;61650;48.882;2.092;2023-04-16T02:42:00;1.70;99.90
51559;DHT22;61650;48.882;2.092;2023-04-16T02:44:26;1.70;99.90
51559;DHT22;61650;48.882;2.092;2023-04-16T02:46:52;1.70;99.90
51559;DHT22;61650;48.882;2.092;2023-04-16T02:49:18;1.80;99.90
51559;DHT22;61650;48.882;2.092;2023-04-16T02:51:43;1.70;99.90
51559;DHT22;61650;48.882;2.092;2023-04-16T02:54:09;1.70;99.90
51559;DHT22;61650;48.882;2.092;2023-04-16T02:56:34;1.70;99.90
51559;DHT22;61650;48.882;2.092;2023-04-16T02:59:00;1.70;99.90
51559;DHT22;61650;48.882;2.092;2023-04-16T03:01:25;1.70;99.90
51559;DHT22;61650;48.882;2.092;2023-04-16T03:03:52;1.80;99.90
51559;DHT22;61650;48.882;2.092;2023-04-16T03:06:18;1.80;99.90
51559;DHT22;61650;48.882;2.092;2023-04-16T03:08:43;1.80;99.90
51559;DHT22;61650;48.882;2.092;2023-04-16T03:11:09;1.70;99.90
51559;DHT22;61650;48.882;2.092;2023-04-16T03:13:35;1.70;99.90
51559;DHT22;61650;48.882;2.092;2023-04-16T03:16:00;1.80;99.90
51559;DHT22;61650;48.882;2.092;2023-04-16T03:18:26;1.80;99.90
51559;DHT22;61650;48.882;2.092;2023-04-16T03:20:52;1.80;99.90
51559;DHT22;61650;48.882;2.092;2023-04-16T03:23:18;1.70;99.90
51559;DHT22;61650;48.882;2.092;2023-04-16T03:25:44;1.70;99.90
51559;DHT22;61650;48.882;2.092;2023-04-16T03:28:12;1.70;99.90
51559;DHT22;61650;48.882;2.092;2023-04-16T03:30:38;1.70;99.90
51559;DHT22;61650;48.882;2.092;2023-04-16T03:33:03;1.60;99.90
51559;DHT22;61650;48.882;2.092;2023-04-16T03:35:29;1.60;99.90
51559;DHT22;61650;48.882;2.092;2023-04-16T03:37:55;1.60;99.90
51559;DHT22;61650;48.882;2.092;2023-04-16T03:40:20;1.60;99.90
51559;DHT22;61650;48.882;2.092;2023-04-16T03:42:46;1.60;99.90
51559;DHT22;61650;48.882;2.092;2023-04-16T03:45:11;1.50;99.90
51559;DHT22;61650;48.882;2.092;2023-04-16T03:47:37;1.60;99.90
51559;DHT22;61650;48.882;2.092;2023-04-16T03:50:03;1.50;99.90
51559;DHT22;61650;48.882;2.092;2023-04-16T03:52:28;1.40;99.90
51559;DHT22;61650;48.882;2.092;2023-04-16T03:54:54;1.50;99.90
51559;DHT22;61650;48.882;2.092;2023-04-16T03:57:19;1.50;99.90
51559;DHT22;61650;48.882;2.092;2023-04-16T03:59:45;1.50;99.90
51559;DHT22;61650;48.882;2.092;2023-04-16T04:02:10;1.40;99.90
51559;DHT22;61650;48.882;2.092;2023-04-16T04:04:36;1.40;99.90
51559;DHT22;61650;48.882;2.092;2023-04-16T04:07:01;1.50;99.90
51559;DHT22;61650;48.882;2.092;2023-04-16T04:09:27;1.50;99.90
51559;DHT22;61650;48.882;2.092;2023-04-16T04:11:53;1.40;99.90
51559;DHT22;61650;48.882;2.092;2023-04-16T04:14:19;1.40;99.90
51559;DHT22;61650;48.882;2.092;2023-04-16T04:16:44;1.30;99.90
51559;DHT22;61650;48.882;2.092;2023-04-16T04:19:10;1.30;99.90
51559;DHT22;61650;48.882;2.092;2023-04-16T04:21:36;1.30;99.90
51559;DHT22;61650;48.882;2.092;2023-04-16T04:24:01;1.30;99.90
51559;DHT22;61650;48.882;2.092;2023-04-16T04:26:27;1.20;99.90
51559;DHT22;61650;48.882;2.092;2023-04-16T04:28:52;1.30;99.90
51559;DHT22;61650;48.882;2.092;2023-04-16T04:31:18;1.30;99.90
51559;DHT22;61650;48.882;2.092;2023-04-16T04:33:43;1.30;99.90
51559;DHT22;61650;48.882;2.092;2023-04-16T04:36:09;1.30;99.90
51559;DHT22;61650;48.882;2.092;2023-04-16T04:38:35;1.40;99.90
51559;DHT22;61650;48.882;2.092;2023-04-16T04:41:00;1.40;99.90
51559;DHT22;61650;48.882;2.092;2023-04-16T04:43:26;1.30;99.90
51559;DHT22;61650;48.882;2.092;2023-04-16T04:45:52;1.30;99.90
51559;DHT22;61650;48.882;2.092;2023-04-16T04:48:17;1.20;99.90
51559;DHT22;61650;48.882;2.092;2023-04-16T04:50:43;1.20;99.90
51559;DHT22;61650;48.882;2.092;2023-04-16T04:53:09;1.20;99.90
51559;DHT22;61650;48.882;2.092;2023-04-16T04:55:38;1.20;99.90
51559;DHT22;61650;48.882;2.092;2023-04-16T04:58:05;1.10;99.90
51559;DHT22;61650;48.882;2.092;2023-04-16T05:00:32;1.00;99.90
51559;DHT22;61650;48.882;2.092;2023-04-16T05:03:02;1.00;99.90
51559;DHT22;61650;48.882;2.092;2023-04-16T05:05:28;1.00;99.90
51559;DHT22;61650;48.882;2.092;2023-04-16T05:07:53;1.10;99.90
51559;DHT22;61650;48.882;2.092;2023-04-16T05:10:19;1.10;99.90
51559;DHT22;61650;48.882;2.092;2023-04-16T05:12:46;1.00;99.90
51559;DHT22;61650;48.882;2.092;2023-04-16T05:15:12;1.00;99.90
51559;DHT22;61650;48.882;2.092;2023-04-16T05:17:38;1.00;99.90
51559;DHT22;61650;48.882;2.092;2023-04-16T05:20:04;1.10;99.90
51559;DHT22;61650;48.882;2.092;2023-04-16T05:22:30;1.10;99.90
51559;DHT22;61650;48.882;2.092;2023-04-16T05:24:56;1.10;99.90
51559;DHT22;61650;48.882;2.092;2023-04-16T05:27:21;1.10;99.90
51559;DHT22;61650;48.882;2.092;2023-04-16T05:29:47;1.20;99.90
51559;DHT22;61650;48.882;2.092;2023-04-16T05:32:12;1.30;99.90
51559;DHT22;61650;48.882;2.092;2023-04-16T05:34:38;1.30;99.90
51559;DHT22;61650;48.882;2.092;2023-04-16T05:37:03;1.40;99.90
51559;DHT22;61650;48.882;2.092;2023-04-16T05:39:29;1.50;99.90
51559;DHT22;61650;48.882;2.092;2023-04-16T05:41:54;1.50;99.90
51559;DHT22;61650;48.882;2.092;2023-04-16T05:44:20;1.60;99.90
51559;DHT22;61650;48.882;2.092;2023-04-16T05:46:46;1.70;99.90
51559;DHT22;61650;48.882;2.092;2023-04-16T05:49:11;1.80;99.90
51559;DHT22;61650;48.882;2.092;2023-04-16T05:51:37;1.90;99.90
51559;DHT22;61650;48.882;2.092;2023-04-16T05:54:02;1.80;99.90
51559;DHT22;61650;48.882;2.092;2023-04-16T05:56:28;1.90;99.90
51559;DHT22;61650;48.882;2.092;2023-04-16T05:58:53;2.00;99.90
51559;DHT22;61650;48.882;2.092;2023-04-16T06:01:20;2.00;99.90
51559;DHT22;61650;48.882;2.092;2023-04-16T06:03:46;2.10;99.90
51559;DHT22;61650;48.882;2.092;2023-04-16T06:06:12;2.30;99.90
51559;DHT22;61650;48.882;2.092;2023-04-16T06:08:37;2.30;99.90
51559;DHT22;61650;48.882;2.092;2023-04-16T06:11:03;2.40;99.90
51559;DHT22;61650;48.882;2.092;2023-04-16T06:13:29;2.40;99.90
51559;DHT22;61650;48.882;2.092;2023-04-16T06:15:54;2.50;99.90
51559;DHT22;61650;48.882;2.092;2023-04-16T06:18:20;2.60;99.90
51559;DHT22;61650;48.882;2.092;2023-04-16T06:20:46;2.70;99.90
51559;DHT22;61650;48.882;2.092;2023-04-16T06:23:12;2.80;99.90
51559;DHT22;61650;48.882;2.092;2023-04-16T06:25:37;3.00;99.90
51559;DHT22;61650;48.882;2.092;2023-04-16T06:28:03;3.10;99.90
51559;DHT22;61650;48.882;2.092;2023-04-16T06:30:28;3.20;99.90
51559;DHT22;61650;48.882;2.092;2023-04-16T06:32:54;3.40;99.90
51559;DHT22;61650;48.882;2.092;2023-04-16T06:35:20;3.50;99.90
51559;DHT22;61650;48.882;2.092;2023-04-16T06:37:46;3.50;99.90
51559;DHT22;61650;48.882;2.092;2023-04-16T06:40:12;3.70;99.90
51559;DHT22;61650;48.882;2.092;2023-04-16T06:42:37;3.80;99.90
51559;DHT22;61650;48.882;2.092;2023-04-16T06:45:03;4.10;99.90
51559;DHT22;61650;48.882;2.092;2023-04-16T06:47:29;4.40;99.90
51559;DHT22;61650;48.882;2.092;2023-04-16T06:49:54;4.50;99.90
51559;DHT22;61650;48.882;2.092;2023-04-16T06:52:20;4.40;99.90
51559;DHT22;61650;48.882;2.092;2023-04-16T06:54:47;4.50;99.90
51559;DHT22;61650;48.882;2.092;2023-04-16T06:57:12;4.60;99.90
51559;DHT22;61650;48.882;2.092;2023-04-16T06:59:38;4.70;99.90
51559;DHT22;61650;48.882;2.092;2023-04-16T07:02:04;4.90;99.90
51559;DHT22;61650;48.882;2.092;2023-04-16T07:04:29;5.00;99.90
51559;DHT22;61650;48.882;2.092;2023-04-16T07:06:55;5.00;99.90
51559;DHT22;61650;48.882;2.092;2023-04-16T07:09:20;5.00;99.90
51559;DHT22;61650;48.882;2.092;2023-04-16T07:11:46;5.20;99.90
51559;DHT22;61650;48.882;2.092;2023-04-16T07:14:11;5.30;99.90
51559;DHT22;61650;48.882;2.092;2023-04-16T07:16:37;5.30;99.90
51559;DHT22;61650;48.882;2.092;2023-04-16T07:19:03;5.40;99.90
51559;DHT22;61650;48.882;2.092;2023-04-16T07:21:28;5.60;99.90
51559;DHT22;61650;48.882;2.092;2023-04-16T07:23:54;5.60;99.10
51559;DHT22;61650;48.882;2.092;2023-04-16T07:26:20;5.70;99.90
51559;DHT22;61650;48.882;2.092;2023-04-16T07:28:45;5.90;99.90
51559;DHT22;61650;48.882;2.092;2023-04-16T07:31:11;6.00;99.90
51559;DHT22;61650;48.882;2.092;2023-04-16T07:33:36;6.10;99.90
51559;DHT22;61650;48.882;2.092;2023-04-16T07:36:02;6.20;97.20
51559;DHT22;61650;48.882;2.092;2023-04-16T07:38:28;6.40;96.60
51559;DHT22;61650;48.882;2.092;2023-04-16T07:40:54;6.50;98.90
51559;DHT22;61650;48.882;2.092;2023-04-16T07:43:20;6.60;92.00
51559;DHT22;61650;48.882;2.092;2023-04-16T07:45:46;6.70;95.90
51559;DHT22;61650;48.882;2.092;2023-04-16T07:48:11;6.80;95.60
51559;DHT22;61650;48.882;2.092;2023-04-16T07:50:37;6.90;96.80
51559;DHT22;61650;48.882;2.092;2023-04-16T07:53:03;7.00;94.40
51559;DHT22;61650;48.882;2.092;2023-04-16T07:55:30;7.10;95.30
51559;DHT22;61650;48.882;2.092;2023-04-16T07:57:55;7.20;94.50
51559;DHT22;61650;48.882;2.092;2023-04-16T08:00:21;7.40;95.90
51559;DHT22;61650;48.882;2.092;2023-04-16T08:02:47;7.40;87.70
51559;DHT22;61650;48.882;2.092;2023-04-16T08:05:13;7.30;93.00
51559;DHT22;61650;48.882;2.092;2023-04-16T08:07:38;7.40;88.50
51559;DHT22;61650;48.882;2.092;2023-04-16T08:10:04;7.30;89.80
51559;DHT22;61650;48.882;2.092;2023-04-16T08:12:30;7.10;84.30
51559;DHT22;61650;48.882;2.092;2023-04-16T08:14:55;7.10;83.90
51559;DHT22;61650;48.882;2.092;2023-04-16T08:17:21;7.20;87.10
51559;DHT22;61650;48.882;2.092;2023-04-16T08:19:46;7.60;90.30
51559;DHT22;61650;48.882;2.092;2023-04-16T08:22:12;7.90;90.70
51559;DHT22;61650;48.882;2.092;2023-04-16T08:24:38;8.20;80.90
51559;DHT22;61650;48.882;2.092;2023-04-16T08:27:04;8.50;84.30
51559;DHT22;61650;48.882;2.092;2023-04-16T08:29:30;8.80;85.80
51559;DHT22;61650;48.882;2.092;2023-04-16T08:31:55;8.60;80.40
51559;DHT22;61650;48.882;2.092;2023-04-16T08:34:21;8.40;81.90
51559;DHT22;61650;48.882;2.092;2023-04-16T08:36:47;8.50;83.10
51559;DHT22;61650;48.882;2.092;2023-04-16T08:39:12;8.80;82.90
51559;DHT22;61650;48.882;2.092;2023-04-16T08:41:42;9.00;82.10
51559;DHT22;61650;48.882;2.092;2023-04-16T08:44:12;9.50;79.10
51559;DHT22;61650;48.882;2.092;2023-04-16T08:46:40;9.60;79.40
51559;DHT22;61650;48.882;2.092;2023-04-16T08:49:06;9.40;80.70
51559;DHT22;61650;48.882;2.092;2023-04-16T08:51:35;9.60;82.40
51559;DHT22;61650;48.882;2.092;2023-04-16T08:54:03;9.50;74.80
51559;DHT22;61650;48.882;2.092;2023-04-16T08:56:30;9.30;77.70
51559;DHT22;61650;48.882;2.092;2023-04-16T08:58:56;9.30;79.60
51559;DHT22;61650;48.882;2.092;2023-04-16T09:01:24;9.40;83.60
51559;DHT22;61650;48.882;2.092;2023-04-16T09:03:50;9.50;77.40
51559;DHT22;61650;48.882;2.092;2023-04-16T09:06:16;9.50;81.00
51559;DHT22;61650;48.882;2.092;2023-04-16T09:08:47;9.50;78.30
51559;DHT22;61650;48.882;2.092;2023-04-16T09:11:16;9.70;80.00
51559;DHT22;61650;48.882;2.092;2023-04-16T09:13:43;9.80;78.20
51559;DHT22;61650;48.882;2.092;2023-04-16T09:16:10;9.70;76.30
51559;DHT22;61650;48.882;2.092;2023-04-16T09:18:36;9.80;81.00
51559;DHT22;61650;48.882;2.092;2023-04-16T09:21:03;9.90;80.40
51559;DHT22;61650;48.882;2.092;2023-04-16T09:23:29;10.00;73.70
51559;DHT22;61650;48.882;2.092;2023-04-16T09:25:57;9.90;74.40
51559;DHT22;61650;48.882;2.092;2023-04-16T09:28:38;10.10;74.60
51559;DHT22;61650;48.882;2.092;2023-04-16T09:31:08;10.10;74.30
51559;DHT22;61650;48.882;2.092;2023-04-16T09:33:33;10.20;72.10
51559;DHT22;61650;48.882;2.092;2023-04-16T09:35:59;10.30;69.60
51559;DHT22;61650;48.882;2.092;2023-04-16T09:38:25;10.20;70.90
51559;DHT22;61650;48.882;2.092;2023-04-16T09:41:13;10.30;71.80
51559;DHT22;61650;48.882;2.092;2023-04-16T09:43:41;10.60;73.60
51559;DHT22;61650;48.882;2.092;2023-04-16T09:46:13;10.60;69.90
51559;DHT22;61650;48.882;2.092;2023-04-16T09:48:39;10.60;76.10
51559;DHT22;61650;48.882;2.092;2023-04-16T09:51:05;10.60;78.60
51559;DHT22;61650;48.882;2.092;2023-04-16T09:53:31;10.90;68.90
51559;DHT22;61650;48.882;2.092;2023-04-16T09:55:58;10.90;70.60
51559;DHT22;61650;48.882;2.092;2023-04-16T09:58:24;10.80;67.30
51559;DHT22;61650;48.882;2.092;2023-04-16T10:01:00;10.80;66.10
51559;DHT22;61650;48.882;2.092;2023-04-16T10:03:34;10.90;69.10
51559;DHT22;61650;48.882;2.092;2023-04-16T10:06:21;11.00;72.80
51559;DHT22;61650;48.882;2.092;2023-04-16T10:08:50;11.30;72.00
51559;DHT22;61650;48.882;2.092;2023-04-16T10:11:17;11.60;69.20
51559;DHT22;61650;48.882;2.092;2023-04-16T10:13:43;11.60;64.30
51559;DHT22;61650;48.882;2.092;2023-04-16T10:16:09;11.70;63.10
51559;DHT22;61650;48.882;2.092;2023-04-16T10:18:36;11.70;64.70
51559;DHT22;61650;48.882;2.092;2023-04-16T10:21:02;11.70;59.10
51559;DHT22;61650;48.882;2.092;2023-04-16T10:23:28;11.80;66.30
51559;DHT22;61650;48.882;2.092;2023-04-16T10:25:54;11.90;65.90
51559;DHT22;61650;48.882;2.092;2023-04-16T10:28:20;11.90;70.50
51559;DHT22;61650;48.882;2.092;2023-04-16T10:30:48;11.80;64.50
51559;DHT22;61650;48.882;2.092;2023-04-16T10:33:26;11.90;66.50
51559;DHT22;61650;48.882;2.092;2023-04-16T10:36:05;12.00;66.60
51559;DHT22;61650;48.882;2.092;2023-04-16T10:38:31;12.10;63.80
51559;DHT22;61650;48.882;2.092;2023-04-16T10:41:07;12.10;63.10
51559;DHT22;61650;48.882;2.092;2023-04-16T10:43:45;12.20;67.40
51559;DHT22;61650;48.882;2.092;2023-04-16T10:46:30;12.30;67.50
51559;DHT22;61650;48.882;2.092;2023-04-16T10:49:11;12.30;62.60
51559;DHT22;61650;48.882;2.092;2023-04-16T10:51:36;12.40;71.00
51559;DHT22;61650;48.882;2.092;2023-04-16T10:54:17;12.50;59.80
51559;DHT22;61650;48.882;2.092;2023-04-16T10:56:44;12.60;71.70
51559;DHT22;61650;48.882;2.092;2023-04-16T10:59:10;12.70;61.70
51559;DHT22;61650;48.882;2.092;2023-04-16T11:01:41;12.70;61.50
51559;DHT22;61650;48.882;2.092;2023-04-16T11:12:17;13.20;63.70
51559;DHT22;61650;48.882;2.092;2023-04-16T11:14:51;13.20;59.10
51559;DHT22;61650;48.882;2.092;2023-04-16T11:17:19;13.20;64.40
51559;DHT22;61650;48.882;2.092;2023-04-16T11:19:45;13.20;65.00
51559;DHT22;61650;48.882;2.092;2023-04-16T11:22:15;13.50;59.90
51559;DHT22;61650;48.882;2.092;2023-04-16T11:24:46;13.40;63.10
51559;DHT22;61650;48.882;2.092;2023-04-16T11:27:12;13.50;69.00
51559;DHT22;61650;48.882;2.092;2023-04-16T11:29:38;13.50;59.40
51559;DHT22;61650;48.882;2.092;2023-04-16T11:32:04;13.60;57.60
51559;DHT22;61650;48.882;2.092;2023-04-16T11:34:30;14.10;54.30
51559;DHT22;61650;48.882;2.092;2023-04-16T11:36:56;14.30;61.20
51559;DHT22;61650;48.882;2.092;2023-04-16T11:39:22;14.40;55.90
51559;DHT22;61650;48.882;2.092;2023-04-16T11:41:49;14.70;57.40
51559;DHT22;61650;48.882;2.092;2023-04-16T11:44:23;15.10;53.10
51559;DHT22;61650;48.882;2.092;2023-04-16T11:46:50;14.90;59.30
51559;DHT22;61650;48.882;2.092;2023-04-16T11:49:16;14.70;64.00
51559;DHT22;61650;48.882;2.092;2023-04-16T11:51:43;14.70;57.80
51559;DHT22;61650;48.882;2.092;2023-04-16T11:54:17;14.50;56.00
51559;DHT22;61650;48.882;2.092;2023-04-16T11:56:45;14.40;57.70
51559;DHT22;61650;48.882;2.092;2023-04-16T12:01:39;14.60;52.90
51559;DHT22;61650;48.882;2.092;2023-04-16T12:04:05;14.60;59.00
51559;DHT22;61650;48.882;2.092;2023-04-16T12:06:31;14.60;52.90
51559;DHT22;61650;48.882;2.092;2023-04-16T12:08:57;14.60;53.70
51559;DHT22;61650;48.882;2.092;2023-04-16T12:11:40;14.70;51.90
51559;DHT22;61650;48.882;2.092;2023-04-16T12:14:09;15.10;54.20
51559;DHT22;61650;48.882;2.092;2023-04-16T12:16:35;15.30;49.60
51559;DHT22;61650;48.882;2.092;2023-04-16T12:19:02;15.40;68.50
51559;DHT22;61650;48.882;2.092;2023-04-16T12:21:40;15.60;63.40
51559;DHT22;61650;48.882;2.092;2023-04-16T12:24:08;16.20;55.70
51559;DHT22;61650;48.882;2.092;2023-04-16T12:26:39;17.10;47.30
51559;DHT22;61650;48.882;2.092;2023-04-16T12:29:23;17.20;50.80
51559;DHT22;61650;48.882;2.092;2023-04-16T12:31:49;17.00;52.70
51559;DHT22;61650;48.882;2.092;2023-04-16T12:34:15;17.20;48.10
51559;DHT22;61650;48.882;2.092;2023-04-16T12:36:42;17.50;50.20
51559;DHT22;61650;48.882;2.092;2023-04-16T12:39:09;17.30;56.60
51559;DHT22;61650;48.882;2.092;2023-04-16T12:41:39;17.70;47.40
51559;DHT22;61650;48.882;2.092;2023-04-16T12:44:15;17.90;46.50
51559;DHT22;61650;48.882;2.092;2023-04-16T12:46:41;18.20;45.20
51559;DHT22;61650;48.882;2.092;2023-04-16T12:49:08;18.20;48.90
51559;DHT22;61650;48.882;2.092;2023-04-16T12:51:34;18.10;47.80
51559;DHT22;61650;48.882;2.092;2023-04-16T12:54:02;18.40;45.50
51559;DHT22;61650;48.882;2.092;2023-04-16T12:56:28;18.50;47.00
51559;DHT22;61650;48.882;2.092;2023-04-16T12:58:54;17.80;44.80
51559;DHT22;61650;48.882;2.092;2023-04-16T13:01:20;17.80;46.60
51559;DHT22;61650;48.882;2.092;2023-04-16T13:03:46;17.90;46.30
51559;DHT22;61650;48.882;2.092;2023-04-16T13:06:13;17.60;54.60
51559;DHT22;61650;48.882;2.092;2023-04-16T13:08:44;17.60;43.00
51559;DHT22;61650;48.882;2.092;2023-04-16T13:11:10;17.90;49.20
51559;DHT22;61650;48.882;2.092;2023-04-16T13:13:36;18.60;49.30
51559;DHT22;61650;48.882;2.092;2023-04-16T13:16:01;19.80;42.80
51559;DHT22;61650;48.882;2.092;2023-04-16T13:18:32;19.00;41.40
51559;DHT22;61650;48.882;2.092;2023-04-16T13:20:58;18.60;44.10
51559;DHT22;61650;48.882;2.092;2023-04-16T13:23:24;19.00;52.30
51559;DHT22;61650;48.882;2.092;2023-04-16T13:25:49;19.10;43.10
51559;DHT22;61650;48.882;2.092;2023-04-16T13:28:15;18.10;41.50
51559;DHT22;61650;48.882;2.092;2023-04-16T13:30:41;17.60;44.40
51559;DHT22;61650;48.882;2.092;2023-04-16T13:33:07;17.80;46.20
51559;DHT22;61650;48.882;2.092;2023-04-16T13:35:33;18.90;56.30
51559;DHT22;61650;48.882;2.092;2023-04-16T13:38:01;20.00;44.50
51559;DHT22;61650;48.882;2.092;2023-04-16T13:40:27;21.10;43.60
51559;DHT22;61650;48.882;2.092;2023-04-16T13:42:55;21.20;38.10
51559;DHT22;61650;48.882;2.092;2023-04-16T13:45:21;20.90;40.10
51559;DHT22;61650;48.882;2.092;2023-04-16T13:47:47;20.40;41.60
51559;DHT22;61650;48.882;2.092;2023-04-16T13:50:12;19.30;50.40
51559;DHT22;61650;48.882;2.092;2023-04-16T13:52:38;18.90;39.20
51559;DHT22;61650;48.882;2.092;2023-04-16T13:55:04;18.90;42.60
51559;DHT22;61650;48.882;2.092;2023-04-16T13:57:30;18.60;38.80
51559;DHT22;61650;48.882;2.092;2023-04-16T13:59:56;18.70;65.30
51559;DHT22;61650;48.882;2.092;2023-04-16T14:02:22;19.20;55.70
51559;DHT22;61650;48.882;2.092;2023-04-16T14:04:50;18.70;39.90
51559;DHT22;61650;48.882;2.092;2023-04-16T14:07:15;18.50;43.80
51559;DHT22;61650;48.882;2.092;2023-04-16T14:09:41;18.40;44.20
51559;DHT22;61650;48.882;2.092;2023-04-16T14:12:07;18.00;49.60
51559;DHT22;61650;48.882;2.092;2023-04-16T14:14:32;17.70;44.10
51559;DHT22;61650;48.882;2.092;2023-04-16T14:16:58;17.70;65.40
51559;DHT22;61650;48.882;2.092;2023-04-16T14:19:26;17.40;53.80
51559;DHT22;61650;48.882;2.092;2023-04-16T14:21:52;17.20;51.90
51559;DHT22;61650;48.882;2.092;2023-04-16T14:24:18;16.90;54.70
51559;DHT22;61650;48.882;2.092;2023-04-16T14:26:44;16.70;53.60
51559;DHT22;61650;48.882;2.092;2023-04-16T14:29:10;16.60;54.30
51559;DHT22;61650;48.882;2.092;2023-04-16T14:31:35;16.50;49.40
51559;DHT22;61650;48.882;2.092;2023-04-16T14:34:01;16.30;46.50
51559;DHT22;61650;48.882;2.092;2023-04-16T14:36:27;16.30;50.60
51559;DHT22;61650;48.882;2.092;2023-04-16T14:38:53;16.40;54.40
51559;DHT22;61650;48.882;2.092;2023-04-16T14:41:19;16.40;50.10
51559;DHT22;61650;48.882;2.092;2023-04-16T14:43:45;16.40;53.90
51559;DHT22;61650;48.882;2.092;2023-04-16T14:46:10;16.30;49.10
51559;DHT22;61650;48.882;2.092;2023-04-16T14:48:36;16.30;51.60
51559;DHT22;61650;48.882;2.092;2023-04-16T14:51:01;16.00;49.80
51559;DHT22;61650;48.882;2.092;2023-04-16T14:53:27;15.60;48.70
51559;DHT22;61650;48.882;2.092;2023-04-16T14:55:53;15.70;49.40
51559;DHT22;61650;48.882;2.092;2023-04-16T14:58:22;15.90;52.40
51559;DHT22;61650;48.882;2.092;2023-04-16T15:00:48;16.00;60.40
51559;DHT22;61650;48.882;2.092;2023-04-16T15:03:14;15.90;56.10
51559;DHT22;61650;48.882;2.092;2023-04-16T15:05:40;15.80;53.00
51559;DHT22;61650;48.882;2.092;2023-04-16T15:08:06;15.70;49.20
51559;DHT22;61650;48.882;2.092;2023-04-16T15:10:31;15.50;49.70
51559;DHT22;61650;48.882;2.092;2023-04-16T15:12:57;15.40;58.70
51559;DHT22;61650;48.882;2.092;2023-04-16T15:15:22;15.50;62.20
51559;DHT22;61650;48.882;2.092;2023-04-16T15:17:49;15.50;56.60
51559;DHT22;61650;48.882;2.092;2023-04-16T15:20:15;15.50;53.10
51559;DHT22;61650;48.882;2.092;2023-04-16T15:22:40;15.30;50.50
51559;DHT22;61650;48.882;2.092;2023-04-16T15:25:06;15.20;65.10
51559;DHT22;61650;48.882;2.092;2023-04-16T15:27:32;15.10;48.90
51559;DHT22;61650;48.882;2.092;2023-04-16T15:29:58;14.90;54.20
51559;DHT22;61650;48.882;2.092;2023-04-16T15:32:24;14.80;56.90
51559;DHT22;61650;48.882;2.092;2023-04-16T15:34:49;14.80;57.80
51559;DHT22;61650;48.882;2.092;2023-04-16T15:37:15;14.80;54.80
51559;DHT22;61650;48.882;2.092;2023-04-16T15:39:41;14.90;53.10
51559;DHT22;61650;48.882;2.092;2023-04-16T15:42:07;15.10;69.70
51559;DHT22;61650;48.882;2.092;2023-04-16T15:44:33;15.10;50.40
51559;DHT22;61650;48.882;2.092;2023-04-16T15:46:59;15.10;61.10
51559;DHT22;61650;48.882;2.092;2023-04-16T15:49:24;15.00;60.50